Brewster, Colorado
Current Conditions -  °F | °C
As of 12:35 PM on Friday 24 Oct 2014 (Local Time) from K1V6 Reporting Station
Clear Clear  
Wind Chill: 81°   Ceiling: Unl
Heat Index: 81°   Visibility: 10mi
Dew Point: 27°   Wind: 12mph
Humidity: 14%   Direction: 270°W
Pressure: 30.19"   Gusts: 20mph
Location:  38.3191°N, 105.161°W
Report Text: K1V6 241835Z AUTO 27010G17KT 10SM CLR 27/M03 A3019 RMK AO2
Loading
Personal Weather Stations






























Interactive Weather Map
Tropical Storm Tracking
New forecast layout! Learn more

10-Day Weather Forecast

Advertisements
Track Severe Weather on mobile